• Join FlightAware (Why Join?)
  • Login
  • US Flag 
Rudolph Flight #1: Arrived! 
10:23AM EST


 

Airport Tracker/Info


-or-


 

Live Flight TrackerFlight Track Log ✈ LYM752 ✈ 17-Oct-2013 ✈ KDEN - KGJT

Flight Track Log - Related Links

Times and Time Zones

All times are in EDT time to prevent confusion due to time zone crossing. See the LYM752 flight status page for this flight to view local times or setup timezone preferences in your user account.

Time Position Orientation Groundspeed Altitude Reporting Facility
EDT Latitude Longitude Course Direction KTS MPH feet Rate Location/Type
07:27AM 39.8167 -104.7000 270° West 122 140 7,000  Level Denver TRACON
07:28AM 39.8167 -104.7500 270° West 124 143 7,800 840 Climbing Denver TRACON
07:29AM 39.8000 -104.7833 237° Southwest 119 137 8,700 840 Climbing Denver TRACON
07:30AM 39.8000 -104.8333 270° West 124 143 9,500 780 Climbing Denver TRACON
07:31AM 39.7833 -104.8833 247° West 128 147 10,300 840 Climbing Denver TRACON
07:32AM 39.7833 -104.9167 270° West 129 148 11,200 900 Climbing Denver TRACON
07:33AM 39.7833 -104.9667 270° West 129 148 12,100 780 Climbing Denver TRACON
07:34AM 39.7667 -105.0167 247° West 130 150 12,800 720 Climbing Denver TRACON
07:35AM 39.7667 -105.0667 270° West 131 151 13,600 720 Climbing Denver TRACON
07:36AM 39.7667 -105.1000 270° West 126 145 14,300 600 Climbing Denver TRACON
07:37AM 39.7500 -105.1500 247° West 129 148 14,900 660 Climbing Denver TRACON
07:38AM 39.7500 -105.2000 270° West 117 135 15,700 720 Climbing Denver TRACON
07:39AM 39.7333 -105.2333 237° Southwest 121 139 16,400 600 Climbing Denver TRACON
07:41AM 39.7342 -105.2900 271° West 116 133 17,200 480 Climbing Denver Center
07:42AM 39.7297 -105.3317 262° West 117 135 17,600 360 Climbing Denver Center
07:43AM 39.7244 -105.3719 260° West 113 130 18,000 240 Climbing Denver Center
07:44AM 39.7206 -105.4183 264° West 135 155 18,100  Climbing Denver Center
07:45AM 39.7167 -105.4756 265° West 158 182 18,100  Level Denver Center
07:46AM 39.7139 -105.5358 267° West 166 191 18,100  Level Denver Center
07:47AM 39.7117 -105.5942 267° West 161 185 18,100  Level Denver Center
07:48AM 39.7061 -105.6567 263° West 173 199 18,100  Level Denver Center
07:49AM 39.6942 -105.7147 255° West 165 190 18,100  Level Denver Center
07:50AM 39.6811 -105.7736 254° West 170 196 18,100  Level Denver Center
07:51AM 39.6689 -105.8269 253° West 165 190 18,100  Level Denver Center
07:52AM 39.6592 -105.8825 257° West 159 183 18,100  Level Denver Center
07:53AM 39.6503 -105.9411 259° West 164 189 18,100  Level Denver Center
07:54AM 39.6386 -105.9994 255° West 167 192 18,100  Level Denver Center
07:55AM 39.6247 -106.0564 252° West 168 193 18,100  Level Denver Center
07:56AM 39.6097 -106.1156 252° West 171 197 18,100  Level Denver Center
07:57AM 39.5925 -106.1825 252° West 174 200 18,100  Level Denver Center
07:58AM 39.5786 -106.2403 253° West 168 193 18,100  Level Denver Center
07:59AM 39.5650 -106.2964 253° West 164 189 18,100  Level Denver Center
08:00AM 39.5519 -106.3533 253° West 164 189 18,100  Level Denver Center
08:01AM 39.5392 -106.4103 254° West 164 189 18,100  Level Denver Center
08:02AM 39.5256 -106.4678 253° West 166 191 18,100  Level Denver Center
08:03AM 39.5142 -106.5233 255° West 170 196 18,100  Level Denver Center
08:04AM 39.4992 -106.5878 253° West 169 194 18,100  Level Denver Center
08:05AM 39.4864 -106.6431 253° West 168 193 18,100  Level Denver Center
08:06AM 39.4750 -106.6989 255° West 167 192 18,100  Level Denver Center
08:07AM 39.4617 -106.7656 255° West 170 196 18,100  Level Denver Center
08:08AM 39.4508 -106.8222 256° West 170 196 18,100  Level Denver Center
08:09AM 39.4394 -106.8778 255° West 166 191 18,200  Climbing Denver Center
08:10AM 39.4283 -106.9342 256° West 167 192 18,100 -60 Descending Denver Center
08:11AM 39.4164 -107.0008 257° West 170 196 18,100  Level Denver Center
08:12AM 39.4069 -107.0508 256° West 170 196 18,100  Level Denver Center
08:13AM 39.3958 -107.1111 257° West 171 197 18,100  Level Denver Center
08:14AM 39.3847 -107.1703 256° West 170 196 18,100  Level Denver Center
08:15AM 39.3731 -107.2383 258° West 171 197 18,100  Level Denver Center
08:16AM 39.3644 -107.2956 259° West 169 194 18,100  Level Denver Center
08:17AM 39.3550 -107.3608 259° West 167 192 18,100  Level Denver Center
08:18AM 39.3469 -107.4181 260° West 168 193 18,100  Level Denver Center
08:19AM 39.3378 -107.4736 258° West 166 191 18,100  Level Denver Center
08:20AM 39.3236 -107.5403 255° West 170 196 18,100  Level Denver Center
08:21AM 39.3125 -107.5950 255° West 167 192 18,100 -180 Level Denver Center
08:22AM 39.3003 -107.6522 255° West 171 197 17,800 -780 Descending Denver Center
08:23AM 39.2831 -107.7306 254° West 195 224 16,600 -960 Descending Denver Center
08:24AM 39.2672 -107.7950 252° West 198 228 15,900 -720 Descending Denver Center
08:25AM 39.2542 -107.8606 256° West 198 228 15,200 -420 Descending Denver Center
08:26AM 39.2378 -107.9294 253° West 187 215 15,100 -480 Descending Denver Center
08:27AM 39.2250 -107.9922 255° West 183 211 14,300 -960 Descending Denver Center
08:28AM 39.2094 -108.0647 255° West 209 241 13,200 -1,080 Descending Denver Center
08:29AM 39.1939 -108.1356 254° West 207 238 12,200 -1,080 Descending Denver Center
08:30AM 39.1794 -108.2142 257° West 210 242 11,100 -840 Descending Denver Center
08:31AM 39.1669 -108.2842 257° West 202 232 10,500 -540 Descending Denver Center
08:32AM 39.1583 -108.3464 260° West 179 206 10,100 -420 Descending Denver Center
08:33AM 39.1475 -108.4025 256° West 163 188 9,700 -1,200 Descending Denver Center
08:34AM 39.1367 -108.4589 256° West 159 183 7,800 -1,560 Descending Denver Center
08:35AM 39.1511 -108.5175 288° West 167 192 6,600 -1,020 Descending Denver Center
08:36AM 39.1611 -108.5631 286° West 150 173 5,800 -840 Descending Denver Center
08:37AM 39.1353 -108.5456 152° Southeast 130 150 4,900 -540 Descending Denver Center
08:38AM 39.1175 -108.5156 127° Southeast 121 139 4,800 -60 Descending Denver Center
08:39AM 39.1208 -108.5331 284° West 88 101 4,800  Level Denver Center